Погода Базылевкана 2 недели

Витебская область, Белоруссия

22 мая-04 июня
  • 22мая
    Сегодня
    +13°
    +24°
    Облачно с прояснениями
    ВремяПогодаТемператураВлажностьДавлениеВетер, м/сВероятность осадков
    00:00Облачно с прояснениями+14°C88 %754 мм1.3 м/с2 %
    03:00Небольшая облачность+12°C86 %754 мм1.3 м/с2 %
    06:00Ясно и безоблачно+12°C77 %754 мм1.4 м/с2 %
    09:00Ясно и безоблачно+18°C65 %755 мм2.1 м/с2 %
    12:00Ясно и безоблачно+23°C61 %755 мм2.7 м/с2 %
    15:00Облачно с прояснениями+23°C56 %754 мм2.7 м/с26 %
    18:00Небольшая облачность, возможен дождь с грозой+22°C82 %755 мм2.5 м/с62 %
    21:00Облачно с прояснениями+18°C91 %754 мм1.3 м/с27 %
  • 23мая
    Четверг
    +12°
    +25°
    Ясно и безоблачно
    ВремяПогодаТемператураВлажностьДавлениеВетер, м/сВероятность осадков
    00:00Ясно и безоблачно+15°C92 %755 мм1.4 м/с2 %
    03:00Ясно и безоблачно+14°C93 %755 мм1.4 м/с2 %
    06:00Ясно и безоблачно+13°C90 %756 мм1.7 м/с1 %
    09:00Ясно и безоблачно+18°C70 %757 мм2.7 м/с2 %
    12:00Практически безоблачно+22°C58 %757 мм3.3 м/с3 %
    15:00Ясно и безоблачно+24°C50 %757 мм3.6 м/с9 %
    18:00Ясно и безоблачно+24°C48 %757 мм3.4 м/с8 %
    21:00Ясно и безоблачно+19°C58 %758 мм1.9 м/с2 %
  • 24мая
    Пятница
    +10°
    +24°
    Ясно и безоблачно
    ВремяПогодаТемператураВлажностьДавлениеВетер, м/сВероятность осадков
    00:00Ясно и безоблачно+16°C62 %759 мм2.0 м/с1 %
    03:00Ясно и безоблачно+13°C65 %760 мм1.9 м/с1 %
    06:00Ясно и безоблачно+13°C68 %761 мм1.9 м/с2 %
    09:00Ясно и безоблачно+17°C61 %761 мм2.8 м/с2 %
    12:00Ясно и безоблачно+21°C52 %761 мм3.0 м/с2 %
    15:00Ясно и безоблачно+23°C48 %760 мм3.0 м/с2 %
    18:00Ясно и безоблачно+23°C48 %760 мм3.1 м/с3 %
    21:00Ясно и безоблачно+18°C62 %760 мм1.7 м/с3 %
  • 25мая
    Суббота
    +12°
    +24°
    Практически безоблачно
    ВремяПогодаТемператураВлажностьДавлениеВетер, м/сВероятность осадков
    00:00Ясно и безоблачно+14°C67 %760 мм1.4 м/с2 %
    03:00Ясно и безоблачно+12°C76 %760 мм1.3 м/с2 %
    06:00Ясно и безоблачно+11°C80 %760 мм1.4 м/с2 %
    09:00Ясно и безоблачно+18°C68 %760 мм2.1 м/с2 %
    12:00Ясно и безоблачно+22°C56 %759 мм2.3 м/с6 %
    15:00Практически безоблачно+24°C45 %759 мм2.4 м/с10 %
    18:00Практически безоблачно+24°C45 %758 мм2.6 м/с15 %
    21:00Практически безоблачно+19°C69 %757 мм1.2 м/с9 %
  • 26мая
    Воскресенье
    +11°
    +25°
    Ясно и безоблачно
    ВремяПогодаТемператураВлажностьДавлениеВетер, м/сВероятность осадков
    00:00Ясно и безоблачно+15°C66 %758 мм1.1 м/с4 %
    03:00Практически безоблачно+13°C75 %758 мм1.0 м/с4 %
    06:00Практически безоблачно+13°C77 %758 мм0.9 м/с8 %
    09:00Ясно и безоблачно+19°C62 %759 мм1.1 м/с4 %
    12:00Ясно и безоблачно+23°C41 %759 мм1.8 м/с9 %
    15:00Ясно и безоблачно+24°C40 %759 мм1.8 м/с12 %
    18:00Ясно и безоблачно+24°C42 %758 мм1.9 м/с15 %
    21:00Ясно и безоблачно+19°C70 %758 мм1.0 м/с4 %
Мы используем cookies
Соглашаюсь